KSPA/SPA METAR and TAF weather

Enter ICAO airport designator
Station Type Date Time Source
KSPA METAR 2019/05/19 20:35 UTC NOAA

KSPA 192035Z AUTO 19006KT 10SM SCT060 31/14 A3000 RMK AO2


Station Type Date Time Source
KSPA Decoded METAR 2019/05/19 20:35 UTC NOAA

Spartanburg Memorial, SC, United States (KSPA) 34-55N 081-57W
May 19, 2019 - 04:35 PM EDT / 2019.05.19 2035 UTC
Wind: from the S (190 degrees) at 7 MPH (6 KT):0
Visibility: 10 mile(s):0
Sky conditions: partly cloudy
Temperature: 87 F (31 C)
Dew Point: 57 F (14 C)
Relative Humidity: 35%
Pressure (altimeter): 30 in. Hg (1015 hPa)
ob: KSPA 192035Z AUTO 19006KT 10SM SCT060 31/14 A3000 RMK AO2
cycle: 20

Station Type Date Time Source
KSPA TAF UTC NOAA

Error!

Example: see airport list